createdAt,value
2022-07-26T06:27:05.623Z,21.00
2022-07-26T06:29:40.713Z,21.10
2022-07-26T06:34:44.352Z,21.30
2022-07-26T06:37:41.417Z,21.40
2022-07-26T06:40:18.431Z,21.40
2022-07-26T06:45:29.167Z,21.50
2022-07-26T06:48:17.513Z,21.50
2022-07-26T06:51:00.614Z,21.60
2022-07-26T06:53:27.507Z,21.60
2022-07-26T07:35:17.085Z,22.30
2022-07-26T07:38:28.748Z,22.50
2022-07-26T07:41:24.293Z,22.50
2022-07-26T07:52:28.307Z,22.80
2022-07-26T08:04:38.945Z,23.20
2022-07-26T08:07:21.193Z,23.20
2022-07-26T08:10:02.480Z,23.20
2022-07-26T08:12:34.666Z,23.20
2022-07-26T08:15:23.903Z,23.30
2022-07-26T08:18:26.417Z,23.30
2022-07-26T08:20:55.156Z,23.50
2022-07-26T08:26:09.352Z,23.80
2022-07-26T08:31:33.413Z,25.60
2022-07-26T08:34:17.786Z,24.00
2022-07-26T08:39:48.043Z,24.40
2022-07-26T08:42:22.750Z,24.50
2022-07-26T08:44:50.802Z,24.50
2022-07-26T08:49:55.951Z,24.50
2022-07-26T08:52:38.728Z,24.30
2022-07-26T08:55:32.255Z,24.10
2022-07-26T08:58:28.105Z,24.00
2022-07-26T09:01:16.456Z,23.80
2022-07-26T09:03:48.374Z,23.90
2022-07-26T09:06:25.521Z,23.80
2022-07-26T09:14:12.969Z,24.00
2022-07-26T09:19:22.607Z,24.50
2022-07-26T09:22:05.028Z,24.50
2022-07-26T09:24:47.358Z,24.40
2022-07-26T09:31:02.900Z,24.00
2022-07-26T09:38:05.150Z,24.50
2022-07-26T09:40:39.471Z,24.90
2022-07-26T09:43:35.931Z,25.50
2022-07-26T09:46:16.090Z,26.40
2022-07-26T09:49:12.009Z,27.40
2022-07-26T09:51:48.329Z,27.70
2022-07-26T09:54:36.676Z,28.20
2022-07-26T09:57:06.109Z,28.10
2022-07-26T09:59:33.574Z,28.10
2022-07-26T10:02:04.297Z,28.10
2022-07-26T10:04:33.868Z,28.20
2022-07-26T10:07:03.671Z,28.20
2022-07-26T10:09:36.299Z,28.20
2022-07-26T10:12:07.358Z,27.90
2022-07-26T10:14:40.096Z,27.70
2022-07-26T10:17:31.182Z,27.50
2022-07-26T10:20:09.397Z,27.10
2022-07-26T10:22:52.691Z,26.90
2022-07-26T10:25:20.148Z,26.60
2022-07-26T10:27:51.344Z,26.30
2022-07-26T10:30:18.210Z,26.10
2022-07-26T10:32:51.352Z,26.00
2022-07-26T10:35:34.248Z,25.60
2022-07-26T10:38:03.714Z,25.60
2022-07-26T10:40:35.338Z,25.20
2022-07-26T10:43:39.449Z,24.80
2022-07-26T10:46:26.664Z,24.60
2022-07-26T10:49:25.221Z,24.40
2022-07-26T10:52:13.158Z,24.30
2022-07-26T10:54:58.859Z,24.30
2022-07-26T10:57:35.358Z,24.20
2022-07-26T11:00:16.050Z,24.10
2022-07-26T11:02:44.332Z,24.00
2022-07-26T11:05:16.427Z,24.00
2022-07-26T11:08:10.939Z,23.90
2022-07-26T11:10:44.745Z,23.80
2022-07-26T11:13:22.335Z,23.60
2022-07-26T11:16:01.965Z,23.70
2022-07-26T11:21:14.045Z,23.80
2022-07-26T11:23:53.252Z,24.00
2022-07-26T11:26:41.674Z,24.30
2022-07-26T11:29:16.897Z,24.70
2022-07-26T11:31:58.179Z,25.10
2022-07-26T11:34:36.383Z,25.50
2022-07-26T11:37:07.854Z,25.70
2022-07-26T11:39:38.181Z,25.70
2022-07-26T11:42:19.375Z,25.90
2022-07-26T11:44:54.234Z,26.30
2022-07-26T11:47:25.742Z,26.20
2022-07-26T11:50:16.855Z,26.50
2022-07-26T11:55:31.916Z,27.10
2022-07-26T12:00:40.167Z,27.50
2022-07-26T12:03:07.203Z,27.70
2022-07-26T12:05:42.324Z,27.80
2022-07-26T12:08:24.765Z,28.30
2022-07-26T12:11:01.749Z,28.50
2022-07-26T12:13:28.701Z,28.70
2022-07-26T12:16:16.856Z,28.80
2022-07-26T12:22:04.094Z,29.00
2022-07-26T12:25:02.239Z,28.90
2022-07-26T12:27:35.051Z,28.80
2022-07-26T12:30:12.119Z,28.90
2022-07-26T12:32:42.210Z,28.80
2022-07-26T12:37:48.851Z,28.60
2022-07-26T12:40:22.814Z,25.30
2022-07-26T12:43:01.999Z,28.60
2022-07-26T12:45:36.478Z,28.40
2022-07-26T12:48:12.778Z,28.50
2022-07-26T12:53:38.737Z,29.00
2022-07-26T12:56:16.915Z,29.10
2022-07-26T13:04:41.071Z,29.00
2022-07-26T13:07:15.906Z,25.30
2022-07-26T13:10:08.209Z,29.10
2022-07-26T13:15:05.432Z,29.00
2022-07-26T13:22:48.618Z,29.20
2022-07-26T13:28:17.640Z,29.90
2022-07-26T13:30:48.510Z,30.10
2022-07-26T13:33:27.078Z,30.50
2022-07-26T13:35:53.924Z,30.50
2022-07-26T13:38:28.056Z,30.70
